Time;durP1;ratioP1;P1;durP2;ratioP2;P2;SDS_P1;SDS_P2;PMS_P1;PMS_P2;Temp;Humidity;BMP_temperature;BMP_pressure;BME280_temperature;BME280_humidity;BME280_pressure;Samples;Min_cycle;Max_cycle;Signal;HPM_P1;HPM_P2
2024/01/12 00:00:50;;;;;;;15.43;11.67;;;;;;;;;;6230651;22;20413;-93
2024/01/12 00:03:16;;;;;;;16.40;10.97;;;;;;;;;;6230205;22;20389;-92
2024/01/12 00:05:42;;;;;;;24.07;14.03;;;;;;;;;;6229068;22;20400;-91
2024/01/12 00:08:08;;;;;;;13.80;8.53;;;;;;;;;;6256533;22;20373;-92
2024/01/12 00:10:34;;;;;;;20.17;11.30;;;;;;;;;;6283048;22;20427;-92
2024/01/12 00:13:01;;;;;;;13.90;8.73;;;;;;;;;;6229452;22;20832;-92
2024/01/12 00:15:27;;;;;;;14.80;10.47;;;;;;;;;;6256229;22;20393;-92
2024/01/12 00:17:53;;;;;;;11.33;8.80;;;;;;;;;;6229411;22;20451;-93
2024/01/12 00:20:19;;;;;;;24.60;13.80;;;;;;;;;;6255260;22;20377;-93
2024/01/12 00:22:45;;;;;;;19.57;13.47;;;;;;;;;;6232538;22;20708;-93
2024/01/12 00:25:11;;;;;;;14.60;9.97;;;;;;;;;;6255665;22;20383;-92
2024/01/12 00:27:37;;;;;;;25.93;9.87;;;;;;;;;;6258275;22;20837;-92
2024/01/12 00:30:03;;;;;;;13.70;10.00;;;;;;;;;;6284546;22;20369;-93
2024/01/12 00:32:29;;;;;;;23.27;13.33;;;;;;;;;;6234526;22;20875;-93
2024/01/12 00:34:55;;;;;;;14.53;10.90;;;;;;;;;;6254521;22;20369;-94
2024/01/12 00:37:21;;;;;;;24.37;12.73;;;;;;;;;;6230370;22;20411;-93
2024/01/12 00:39:47;;;;;;;20.30;10.93;;;;;;;;;;6233547;22;20448;-94
2024/01/12 00:42:13;;;;;;;18.37;12.33;;;;;;;;;;6232217;22;20460;-93
2024/01/12 00:44:39;;;;;;;19.17;11.80;;;;;;;;;;6231304;22;20395;-93
2024/01/12 00:47:05;;;;;;;24.93;11.93;;;;;;;;;;6244423;22;20397;-94
2024/01/12 00:49:31;;;;;;;37.13;13.70;;;;;;;;;;6257280;22;20715;-92
2024/01/12 00:51:57;;;;;;;15.70;11.07;;;;;;;;;;6259802;22;20365;-93
2024/01/12 00:54:26;;;;;;;16.60;11.97;;;;;;;;;;6261700;22;20864;-92
2024/01/12 00:56:53;;;;;;;19.80;12.47;;;;;;;;;;6260050;22;20840;-92
2024/01/12 00:59:19;;;;;;;17.67;9.77;;;;;;;;;;6258617;22;20445;-93
2024/01/12 01:01:45;;;;;;;16.13;10.63;;;;;;;;;;6263347;22;20381;-91
2024/01/12 01:04:11;;;;;;;20.43;9.70;;;;;;;;;;6258842;22;20392;-93
2024/01/12 01:06:37;;;;;;;13.57;10.80;;;;;;;;;;6257477;22;20377;-94
2024/01/12 01:09:03;;;;;;;10.27;8.97;;;;;;;;;;6256823;22;20857;-93
2024/01/12 01:11:29;;;;;;;22.33;12.40;;;;;;;;;;6258882;22;20377;-92
2024/01/12 01:13:55;;;;;;;18.17;11.40;;;;;;;;;;6258404;22;20389;-94
2024/01/12 01:16:21;;;;;;;17.07;9.97;;;;;;;;;;6259743;22;20420;-92
2024/01/12 01:18:47;;;;;;;16.63;12.37;;;;;;;;;;6258465;22;20377;-91
2024/01/12 01:21:13;;;;;;;25.10;13.03;;;;;;;;;;6258341;22;20377;-92
2024/01/12 01:23:39;;;;;;;17.60;11.70;;;;;;;;;;6255591;22;20468;-92
2024/01/12 01:26:05;;;;;;;20.93;12.87;;;;;;;;;;6259210;22;20389;-93
2024/01/12 01:28:31;;;;;;;11.73;10.50;;;;;;;;;;6258038;22;20387;-92
2024/01/12 01:31:00;;;;;;;14.50;10.27;;;;;;;;;;6258236;22;20401;-93
2024/01/12 01:33:26;;;;;;;29.00;12.97;;;;;;;;;;6282708;22;20366;-95
2024/01/12 01:35:52;;;;;;;18.20;13.00;;;;;;;;;;6258388;22;20388;-94
2024/01/12 01:38:18;;;;;;;20.80;13.33;;;;;;;;;;6259122;22;20455;-91
2024/01/12 01:40:45;;;;;;;14.00;10.50;;;;;;;;;;6283160;22;20433;-93
2024/01/12 01:43:11;;;;;;;16.53;9.20;;;;;;;;;;6259945;22;20389;-91
2024/01/12 01:45:37;;;;;;;12.23;8.70;;;;;;;;;;6256696;22;20975;-92
2024/01/12 01:48:07;;;;;;;18.57;10.40;;;;;;;;;;6258337;22;20895;-92
2024/01/12 01:50:33;;;;;;;11.87;9.60;;;;;;;;;;6256270;22;20377;-94
2024/01/12 01:52:59;;;;;;;15.53;10.40;;;;;;;;;;6259862;22;20385;-93
2024/01/12 01:55:25;;;;;;;18.57;11.40;;;;;;;;;;6257268;22;20377;-93
2024/01/12 01:57:51;;;;;;;21.47;12.40;;;;;;;;;;6259313;22;20405;-92
2024/01/12 02:00:17;;;;;;;15.30;9.33;;;;;;;;;;6256691;22;20427;-93
2024/01/12 02:02:43;;;;;;;14.07;11.10;;;;;;;;;;6256634;22;20876;-93
2024/01/12 02:05:09;;;;;;;19.20;10.67;;;;;;;;;;6255840;22;20417;-93
2024/01/12 02:07:35;;;;;;;24.90;12.17;;;;;;;;;;6260447;22;20382;-94
2024/01/12 02:10:01;;;;;;;9.77;8.30;;;;;;;;;;6257665;22;20409;-94
2024/01/12 02:12:27;;;;;;;16.20;9.87;;;;;;;;;;6259622;22;20381;-93
2024/01/12 02:14:53;;;;;;;24.67;10.07;;;;;;;;;;6258384;22;20873;-94
2024/01/12 02:17:19;;;;;;;27.33;11.90;;;;;;;;;;6284285;22;20451;-91
2024/01/12 02:19:45;;;;;;;24.90;13.50;;;;;;;;;;6284562;22;20361;-93
2024/01/12 02:22:11;;;;;;;15.13;10.90;;;;;;;;;;6259732;22;20425;-94
2024/01/12 02:24:37;;;;;;;13.20;11.90;;;;;;;;;;6256795;22;20366;-93
2024/01/12 02:27:03;;;;;;;18.40;10.73;;;;;;;;;;6284620;22;20452;-92
2024/01/12 02:29:29;;;;;;;17.57;13.90;;;;;;;;;;6257988;22;20381;-94
2024/01/12 02:31:55;;;;;;;15.00;10.03;;;;;;;;;;6256089;22;20465;-91
2024/01/12 02:34:21;;;;;;;19.43;11.53;;;;;;;;;;6257159;22;20380;-92
2024/01/12 02:36:47;;;;;;;19.17;9.17;;;;;;;;;;6258889;22;20427;-94
2024/01/12 02:39:13;;;;;;;14.50;9.90;;;;;;;;;;6256800;22;20381;-92
2024/01/12 02:41:39;;;;;;;19.07;10.23;;;;;;;;;;6283467;22;20452;-92
2024/01/12 02:44:05;;;;;;;16.10;11.20;;;;;;;;;;6284712;22;20915;-94
2024/01/12 02:46:31;;;;;;;12.37;9.07;;;;;;;;;;6257112;22;20400;-92
2024/01/12 02:48:57;;;;;;;21.17;12.43;;;;;;;;;;6257313;22;20468;-92
2024/01/12 02:51:23;;;;;;;18.13;9.53;;;;;;;;;;6259022;22;20384;-93
2024/01/12 02:53:49;;;;;;;18.80;10.13;;;;;;;;;;6259085;22;20397;-94
2024/01/12 02:56:15;;;;;;;17.10;11.10;;;;;;;;;;6259990;22;20397;-93
2024/01/12 02:58:41;;;;;;;16.63;9.57;;;;;;;;;;6261577;22;20425;-96
2024/01/12 03:01:07;;;;;;;12.83;9.80;;;;;;;;;;6261717;22;20400;-92
2024/01/12 03:03:33;;;;;;;18.80;12.00;;;;;;;;;;6284971;22;20382;-95
2024/01/12 03:05:59;;;;;;;12.23;9.77;;;;;;;;;;6234639;22;20869;-92
2024/01/12 03:08:25;;;;;;;10.60;9.50;;;;;;;;;;6231100;22;20404;-93
2024/01/12 03:10:51;;;;;;;21.50;12.07;;;;;;;;;;6233148;22;20378;-92
2024/01/12 03:13:17;;;;;;;15.60;8.70;;;;;;;;;;6197060;23;20389;-93
2024/01/12 03:15:43;;;;;;;22.87;10.20;;;;;;;;;;6172493;23;20387;-91
2024/01/12 03:18:09;;;;;;;24.73;10.90;;;;;;;;;;6170094;23;20474;-93
2024/01/12 03:20:35;;;;;;;18.60;9.57;;;;;;;;;;6171730;23;20387;-92
2024/01/12 03:23:01;;;;;;;15.70;11.07;;;;;;;;;;6171687;23;20460;-92
2024/01/12 03:25:27;;;;;;;23.43;14.03;;;;;;;;;;6170661;23;20942;-92
2024/01/12 03:27:53;;;;;;;14.20;6.80;;;;;;;;;;6171730;23;20433;-93
2024/01/12 03:30:19;;;;;;;13.57;8.53;;;;;;;;;;6168363;23;20402;-92
2024/01/12 03:32:45;;;;;;;17.20;10.00;;;;;;;;;;6168302;23;20383;-95
2024/01/12 03:35:11;;;;;;;14.30;11.43;;;;;;;;;;6194634;23;20378;-93
2024/01/12 03:37:37;;;;;;;18.00;11.00;;;;;;;;;;6201671;23;20426;-92
2024/01/12 03:40:04;;;;;;;13.73;9.70;;;;;;;;;;6200404;23;20378;-92
2024/01/12 03:42:30;;;;;;;14.10;11.17;;;;;;;;;;6202190;23;20398;-93
2024/01/12 03:44:56;;;;;;;26.83;14.07;;;;;;;;;;6245081;22;20442;-91
2024/01/12 03:47:22;;;;;;;10.47;9.10;;;;;;;;;;6258983;22;20888;-93
2024/01/12 03:49:48;;;;;;;18.53;12.07;;;;;;;;;;6258330;22;20381;-94
2024/01/12 03:52:14;;;;;;;16.57;11.07;;;;;;;;;;6260920;22;20557;-94
2024/01/12 03:54:40;;;;;;;23.90;14.27;;;;;;;;;;6284632;22;20369;-93
2024/01/12 03:57:06;;;;;;;21.63;11.80;;;;;;;;;;6257926;22;20433;-92
2024/01/12 03:59:32;;;;;;;17.40;8.53;;;;;;;;;;6258755;22;20388;-93
2024/01/12 04:01:58;;;;;;;10.20;9.13;;;;;;;;;;6260403;22;20381;-89
2024/01/12 04:04:24;;;;;;;16.33;12.10;;;;;;;;;;6256819;22;20413;-91
2024/01/12 04:06:50;;;;;;;12.10;8.87;;;;;;;;;;6258949;22;20365;-93
2024/01/12 04:09:16;;;;;;;18.63;11.13;;;;;;;;;;6256444;22;21218;-93
2024/01/12 04:11:42;;;;;;;17.23;12.20;;;;;;;;;;6258997;22;20397;-93
2024/01/12 04:14:09;;;;;;;16.23;11.57;;;;;;;;;;6259061;22;20386;-93
2024/01/12 04:16:35;;;;;;;13.17;11.77;;;;;;;;;;6289789;22;20373;-93
2024/01/12 04:19:01;;;;;;;21.87;13.33;;;;;;;;;;6257932;22;20378;-91
2024/01/12 04:21:27;;;;;;;22.63;12.60;;;;;;;;;;6262280;22;20606;-94
2024/01/12 04:23:53;;;;;;;14.63;9.67;;;;;;;;;;6258158;22;20468;-92
2024/01/12 04:26:19;;;;;;;12.13;7.10;;;;;;;;;;6259976;22;20370;-92
2024/01/12 04:28:45;;;;;;;13.43;9.10;;;;;;;;;;6258004;22;20845;-92
2024/01/12 04:31:11;;;;;;;12.57;8.77;;;;;;;;;;6258892;22;20389;-93
2024/01/12 04:33:37;;;;;;;20.53;12.07;;;;;;;;;;6255832;22;20641;-93
2024/01/12 04:36:04;;;;;;;15.00;9.37;;;;;;;;;;6259814;22;20423;-92
2024/01/12 04:38:30;;;;;;;17.93;10.40;;;;;;;;;;6258645;22;20942;-93
2024/01/12 04:40:59;;;;;;;16.43;10.60;;;;;;;;;;6258203;22;20381;-94
2024/01/12 04:43:25;;;;;;;21.20;11.83;;;;;;;;;;6257062;22;20369;-92
2024/01/12 04:45:51;;;;;;;19.60;12.30;;;;;;;;;;6258172;22;20466;-93
2024/01/12 04:48:17;;;;;;;21.83;12.53;;;;;;;;;;6260360;22;20674;-92
2024/01/12 04:50:43;;;;;;;16.37;12.10;;;;;;;;;;6257432;22;20377;-92
2024/01/12 04:53:10;;;;;;;18.50;10.17;;;;;;;;;;6282516;22;20403;-92
2024/01/12 04:55:35;;;;;;;10.70;9.07;;;;;;;;;;6258947;22;20377;-93
2024/01/12 04:58:03;;;;;;;17.53;10.10;;;;;;;;;;6258764;22;20517;-92
2024/01/12 05:00:30;;;;;;;15.93;10.00;;;;;;;;;;6254393;22;20989;-92
2024/01/12 05:02:56;;;;;;;15.83;8.93;;;;;;;;;;6260609;22;20983;-93
2024/01/12 05:05:22;;;;;;;12.50;7.80;;;;;;;;;;6254857;22;20411;-92
2024/01/12 05:07:48;;;;;;;17.03;11.30;;;;;;;;;;6258703;22;20428;-93
2024/01/12 05:10:14;;;;;;;18.70;12.37;;;;;;;;;;6258794;22;20389;-94
2024/01/12 05:12:40;;;;;;;16.40;10.40;;;;;;;;;;6257762;22;20444;-93
2024/01/12 05:15:06;;;;;;;25.83;8.80;;;;;;;;;;6255895;22;20370;-92
2024/01/12 05:17:32;;;;;;;13.10;10.50;;;;;;;;;;6256842;22;20425;-91
2024/01/12 05:20:05;;;;;;;20.27;11.03;;;;;;;;;;6282056;22;20361;-91
2024/01/12 05:22:31;;;;;;;16.03;11.27;;;;;;;;;;6225623;23;20377;-91
2024/01/12 05:24:57;;;;;;;24.47;15.70;;;;;;;;;;6225174;23;20370;-92
2024/01/12 05:27:23;;;;;;;24.60;11.77;;;;;;;;;;6201898;23;20389;-92
2024/01/12 05:29:49;;;;;;;18.27;13.93;;;;;;;;;;6200903;23;20386;-92
2024/01/12 05:32:15;;;;;;;14.00;12.27;;;;;;;;;;6201481;23;20548;-92
2024/01/12 05:34:41;;;;;;;15.30;9.87;;;;;;;;;;6199462;23;20373;-93
2024/01/12 05:37:07;;;;;;;11.50;10.43;;;;;;;;;;6197915;23;20422;-91
2024/01/12 05:39:33;;;;;;;11.00;8.77;;;;;;;;;;6200314;23;20452;-91
2024/01/12 05:41:59;;;;;;;23.10;12.13;;;;;;;;;;6201316;23;20398;-91
2024/01/12 05:44:25;;;;;;;17.57;12.50;;;;;;;;;;6201104;23;20460;-92
2024/01/12 05:46:51;;;;;;;19.87;9.50;;;;;;;;;;6202611;23;20448;-94
2024/01/12 05:49:17;;;;;;;15.80;10.73;;;;;;;;;;6228129;23;20390;-92
2024/01/12 05:51:43;;;;;;;13.30;11.13;;;;;;;;;;6201045;23;20892;-92
2024/01/12 05:54:09;;;;;;;15.60;12.00;;;;;;;;;;6248589;22;20392;-92
2024/01/12 05:56:35;;;;;;;15.60;10.87;;;;;;;;;;6260876;22;20374;-90
2024/01/12 05:59:01;;;;;;;17.20;10.27;;;;;;;;;;6261821;22;20389;-92
2024/01/12 06:01:27;;;;;;;19.53;9.53;;;;;;;;;;6259058;22;20377;-91
2024/01/12 06:03:53;;;;;;;12.73;8.27;;;;;;;;;;6262694;22;20407;-92
2024/01/12 06:06:19;;;;;;;20.97;13.40;;;;;;;;;;6257198;22;20392;-92
2024/01/12 06:08:45;;;;;;;13.00;10.70;;;;;;;;;;6261070;22;20382;-92
2024/01/12 06:11:11;;;;;;;17.57;11.03;;;;;;;;;;6259158;22;20389;-90
2024/01/12 06:13:37;;;;;;;13.37;11.53;;;;;;;;;;6258252;22;20395;-90
2024/01/12 06:16:03;;;;;;;11.27;10.00;;;;;;;;;;6254413;22;20381;-91
2024/01/12 06:18:29;;;;;;;16.67;9.30;;;;;;;;;;6258771;22;20439;-90
2024/01/12 06:20:55;;;;;;;17.40;13.07;;;;;;;;;;6254036;22;20401;-90
2024/01/12 06:23:21;;;;;;;15.73;11.27;;;;;;;;;;6255096;22;20408;-90
2024/01/12 06:25:47;;;;;;;16.90;10.27;;;;;;;;;;6253022;22;20374;-90
2024/01/12 06:28:13;;;;;;;13.07;10.83;;;;;;;;;;6283347;22;20373;-88
2024/01/12 06:30:39;;;;;;;13.80;10.53;;;;;;;;;;6256281;22;20407;-91
2024/01/12 06:33:05;;;;;;;12.90;10.30;;;;;;;;;;6260518;22;20397;-90
2024/01/12 06:35:31;;;;;;;10.50;9.43;;;;;;;;;;6256278;22;20468;-90
2024/01/12 06:37:58;;;;;;;17.27;12.20;;;;;;;;;;6257937;22;20472;-90
2024/01/12 06:40:24;;;;;;;11.90;10.80;;;;;;;;;;6224370;23;20401;-89
2024/01/12 06:42:50;;;;;;;20.53;14.33;;;;;;;;;;6196558;23;20386;-91
2024/01/12 06:45:16;;;;;;;19.93;11.50;;;;;;;;;;6203090;23;20889;-88
2024/01/12 06:47:43;;;;;;;24.63;12.33;;;;;;;;;;6200058;23;20409;-90
2024/01/12 06:50:12;;;;;;;25.10;13.03;;;;;;;;;;6201999;23;20382;-90
2024/01/12 06:52:38;;;;;;;11.40;10.13;;;;;;;;;;6199022;23;20394;-90
2024/01/12 06:55:05;;;;;;;15.20;11.77;;;;;;;;;;6200698;23;20405;-88
2024/01/12 06:57:31;;;;;;;20.90;12.03;;;;;;;;;;6198333;23;20971;-90
2024/01/12 06:59:57;;;;;;;17.60;8.63;;;;;;;;;;6199543;23;20378;-90
2024/01/12 07:02:23;;;;;;;19.10;13.23;;;;;;;;;;6196714;23;20378;-89
2024/01/12 07:04:49;;;;;;;22.27;13.90;;;;;;;;;;6200339;23;21100;-91
2024/01/12 07:07:15;;;;;;;25.13;13.30;;;;;;;;;;6222467;23;20441;-90
2024/01/12 07:09:41;;;;;;;19.03;10.70;;;;;;;;;;6199298;23;20386;-90
2024/01/12 07:12:07;;;;;;;17.70;10.37;;;;;;;;;;6240869;22;20381;-86
2024/01/12 07:14:33;;;;;;;14.23;10.30;;;;;;;;;;6257204;22;20420;-90
2024/01/12 07:16:59;;;;;;;13.20;8.87;;;;;;;;;;6253233;22;20425;-90
2024/01/12 07:19:25;;;;;;;25.50;10.80;;;;;;;;;;6258139;22;20480;-89
2024/01/12 07:21:51;;;;;;;19.40;11.10;;;;;;;;;;6255627;22;20431;-91
2024/01/12 07:24:17;;;;;;;19.10;11.90;;;;;;;;;;6254903;22;20377;-90
2024/01/12 07:26:43;;;;;;;14.57;10.80;;;;;;;;;;6253917;22;21175;-91
2024/01/12 07:29:09;;;;;;;15.20;10.27;;;;;;;;;;6251560;22;20804;-90
2024/01/12 07:31:36;;;;;;;27.07;13.50;;;;;;;;;;6253953;22;20388;-90
2024/01/12 07:34:04;;;;;;;19.90;13.67;;;;;;;;;;6280721;22;20379;-90
2024/01/12 07:36:30;;;;;;;10.87;7.37;;;;;;;;;;6254536;22;21059;-90
2024/01/12 07:38:57;;;;;;;21.47;12.70;;;;;;;;;;6257527;22;20380;-90
2024/01/12 07:41:23;;;;;;;15.13;11.10;;;;;;;;;;6279973;22;20419;-89
2024/01/12 07:43:49;;;;;;;20.27;10.83;;;;;;;;;;6259079;22;20475;-90
2024/01/12 07:46:18;;;;;;;17.00;10.17;;;;;;;;;;6257538;22;20384;-91
2024/01/12 07:48:44;;;;;;;19.10;12.70;;;;;;;;;;6259606;22;20373;-91
2024/01/12 07:51:10;;;;;;;17.27;12.23;;;;;;;;;;6232436;22;20411;-91
2024/01/12 07:53:36;;;;;;;24.73;11.63;;;;;;;;;;6234309;22;20385;-90
2024/01/12 07:56:02;;;;;;;15.20;11.50;;;;;;;;;;6231363;22;20975;-91
2024/01/12 07:58:28;;;;;;;13.30;11.03;;;;;;;;;;6234640;22;20417;-91
2024/01/12 08:00:54;;;;;;;21.03;12.03;;;;;;;;;;6229869;22;20705;-90
2024/01/12 08:03:20;;;;;;;15.57;10.67;;;;;;;;;;6231167;22;20378;-90
2024/01/12 08:05:46;;;;;;;11.63;9.90;;;;;;;;;;6231098;22;20399;-90
2024/01/12 08:08:12;;;;;;;22.00;13.60;;;;;;;;;;6283183;22;20373;-89
2024/01/12 08:10:38;;;;;;;22.53;10.70;;;;;;;;;;6230114;22;20876;-90
2024/01/12 08:13:04;;;;;;;18.90;11.47;;;;;;;;;;6231149;22;20383;-89
2024/01/12 08:15:30;;;;;;;20.60;11.40;;;;;;;;;;6232317;22;20396;-90
2024/01/12 08:17:56;;;;;;;24.30;12.17;;;;;;;;;;6229523;22;20512;-90
2024/01/12 08:20:22;;;;;;;28.17;12.70;;;;;;;;;;6230805;22;20381;-92
2024/01/12 08:22:48;;;;;;;24.37;11.10;;;;;;;;;;6233590;22;20377;-92
2024/01/12 08:25:14;;;;;;;15.77;11.97;;;;;;;;;;6235755;22;20427;-92
2024/01/12 08:27:40;;;;;;;17.17;10.97;;;;;;;;;;6234402;22;20381;-93
2024/01/12 08:30:07;;;;;;;14.07;10.50;;;;;;;;;;6231906;22;20415;-92
2024/01/12 08:32:33;;;;;;;17.73;10.13;;;;;;;;;;6234019;22;20393;-93
2024/01/12 08:34:59;;;;;;;20.37;11.37;;;;;;;;;;6231930;22;20449;-93
2024/01/12 08:37:25;;;;;;;30.37;12.80;;;;;;;;;;6231986;22;20432;-92
2024/01/12 08:39:51;;;;;;;19.67;12.97;;;;;;;;;;6231291;22;20377;-95
2024/01/12 08:42:17;;;;;;;15.20;12.50;;;;;;;;;;6234372;22;20373;-92
2024/01/12 08:44:43;;;;;;;16.93;11.57;;;;;;;;;;6232918;22;20807;-92
2024/01/12 08:47:09;;;;;;;26.47;14.60;;;;;;;;;;6242852;22;20454;-90
2024/01/12 08:49:35;;;;;;;25.43;14.97;;;;;;;;;;6258661;22;20389;-91
2024/01/12 08:52:01;;;;;;;21.17;13.40;;;;;;;;;;6259523;22;20449;-91
2024/01/12 08:54:27;;;;;;;19.17;11.93;;;;;;;;;;6255983;22;20767;-91
2024/01/12 08:56:53;;;;;;;21.57;14.17;;;;;;;;;;6257466;22;20425;-92
2024/01/12 08:59:20;;;;;;;29.87;15.47;;;;;;;;;;6257413;22;20370;-91
2024/01/12 09:01:46;;;;;;;18.67;13.00;;;;;;;;;;6258829;22;20472;-93
2024/01/12 09:04:13;;;;;;;19.13;11.77;;;;;;;;;;6258608;22;20381;-92
2024/01/12 09:06:39;;;;;;;24.13;14.90;;;;;;;;;;6261259;22;20368;-92
2024/01/12 09:09:05;;;;;;;21.73;13.20;;;;;;;;;;6259321;22;20393;-92
2024/01/12 09:11:31;;;;;;;26.50;20.70;;;;;;;;;;6261063;22;20373;-92
2024/01/12 09:13:57;;;;;;;23.33;16.70;;;;;;;;;;6259900;22;20464;-91
2024/01/12 09:16:25;;;;;;;32.53;14.47;;;;;;;;;;6258673;22;20928;-92
2024/01/12 09:18:51;;;;;;;28.90;18.63;;;;;;;;;;6261470;22;20956;-92
2024/01/12 09:21:18;;;;;;;34.03;18.67;;;;;;;;;;6257262;22;20386;-92
2024/01/12 09:23:44;;;;;;;33.17;19.03;;;;;;;;;;6260957;22;20373;-92
2024/01/12 09:26:11;;;;;;;28.23;19.00;;;;;;;;;;6260648;22;20775;-92
2024/01/12 09:28:37;;;;;;;34.27;18.40;;;;;;;;;;6261074;22;20377;-92
2024/01/12 09:31:03;;;;;;;31.13;15.87;;;;;;;;;;6258397;22;20388;-91
2024/01/12 09:33:29;;;;;;;25.60;14.83;;;;;;;;;;6259970;22;20366;-92
2024/01/12 09:35:56;;;;;;;23.17;14.30;;;;;;;;;;6257958;22;20768;-92
2024/01/12 09:38:22;;;;;;;26.10;17.23;;;;;;;;;;6285042;22;20973;-92
2024/01/12 09:40:48;;;;;;;25.17;12.90;;;;;;;;;;6257774;22;20373;-91
2024/01/12 09:43:14;;;;;;;27.07;14.37;;;;;;;;;;6285721;22;20365;-92
2024/01/12 09:45:43;;;;;;;34.97;18.47;;;;;;;;;;6256599;22;20377;-92
2024/01/12 09:48:09;;;;;;;37.73;18.17;;;;;;;;;;6260259;22;20433;-91
2024/01/12 09:50:35;;;;;;;24.30;15.97;;;;;;;;;;6256353;22;20377;-91
2024/01/12 09:53:01;;;;;;;28.50;20.03;;;;;;;;;;6257238;22;20419;-92
2024/01/12 09:55:27;;;;;;;28.40;17.43;;;;;;;;;;6256733;22;20885;-91
2024/01/12 09:57:53;;;;;;;34.07;19.33;;;;;;;;;;6258701;22;20513;-92
2024/01/12 10:00:19;;;;;;;28.80;19.03;;;;;;;;;;6258107;22;20373;-91
2024/01/12 10:02:45;;;;;;;39.20;21.27;;;;;;;;;;6257588;22;20377;-91
2024/01/12 10:05:11;;;;;;;30.40;16.93;;;;;;;;;;6258745;22;20431;-92
2024/01/12 10:07:38;;;;;;;23.37;15.87;;;;;;;;;;6257193;22;20401;-92
2024/01/12 10:10:06;;;;;;;37.90;21.57;;;;;;;;;;6257970;22;20416;-93
2024/01/12 10:12:32;;;;;;;31.00;17.07;;;;;;;;;;6261334;23;20377;-92
2024/01/12 10:15:02;;;;;;;35.93;21.47;;;;;;;;;;6225727;23;20885;-91
2024/01/12 10:17:28;;;;;;;24.20;18.63;;;;;;;;;;6224858;23;20425;-92
2024/01/12 10:19:55;;;;;;;33.03;19.83;;;;;;;;;;6224233;23;20378;-90
2024/01/12 10:22:21;;;;;;;24.30;20.60;;;;;;;;;;6227011;23;20492;-91
2024/01/12 10:24:47;;;;;;;30.67;19.70;;;;;;;;;;6224570;23;20382;-92
2024/01/12 10:27:13;;;;;;;29.50;17.80;;;;;;;;;;6227240;23;20421;-92
2024/01/12 10:29:39;;;;;;;31.53;19.00;;;;;;;;;;6224413;23;20379;-90
2024/01/12 10:32:06;;;;;;;30.50;21.07;;;;;;;;;;6225583;23;20404;-90
2024/01/12 10:34:35;;;;;;;34.73;19.67;;;;;;;;;;6222914;23;20481;-90
2024/01/12 10:37:01;;;;;;;25.50;15.90;;;;;;;;;;6225535;23;20418;-90
2024/01/12 10:39:28;;;;;;;31.00;21.03;;;;;;;;;;6223453;23;20493;-92
2024/01/12 10:41:55;;;;;;;34.10;20.03;;;;;;;;;;6226401;23;20374;-91
2024/01/12 10:44:22;;;;;;;25.13;16.97;;;;;;;;;;6271819;22;20384;-89
2024/01/12 10:46:51;;;;;;;42.27;21.77;;;;;;;;;;6258411;22;20405;-90
2024/01/12 10:49:18;;;;;;;28.83;22.37;;;;;;;;;;6257169;22;20385;-91
2024/01/12 10:51:59;;;;;;;36.50;19.00;;;;;;;;;;6281647;22;20373;-90
2024/01/12 10:54:29;;;;;;;39.07;21.13;;;;;;;;;;6280482;22;20841;-91
2024/01/12 10:56:56;;;;;;;27.50;17.10;;;;;;;;;;6261246;22;20461;-91
2024/01/12 10:59:23;;;;;;;31.77;18.40;;;;;;;;;;6256877;22;20419;-90
2024/01/12 11:01:49;;;;;;;29.77;19.27;;;;;;;;;;6255779;22;20377;-91
2024/01/12 11:04:15;;;;;;;27.37;18.70;;;;;;;;;;6258714;22;20382;-90
2024/01/12 11:06:45;;;;;;;29.00;16.27;;;;;;;;;;6281490;22;20372;-91
2024/01/12 11:09:12;;;;;;;23.97;18.00;;;;;;;;;;6259253;22;20372;-90
2024/01/12 11:11:42;;;;;;;21.13;16.63;;;;;;;;;;6259221;22;20369;-90
2024/01/12 11:14:08;;;;;;;21.60;15.00;;;;;;;;;;6259481;22;20427;-92
2024/01/12 11:16:35;;;;;;;29.57;18.67;;;;;;;;;;6257147;22;20487;-92
2024/01/12 11:19:03;;;;;;;29.93;14.70;;;;;;;;;;6284611;22;20377;-90
2024/01/12 11:21:29;;;;;;;29.77;17.67;;;;;;;;;;6258845;22;20381;-91
2024/01/12 11:23:55;;;;;;;31.07;16.70;;;;;;;;;;6261531;22;20388;-92
2024/01/12 11:26:21;;;;;;;24.43;16.53;;;;;;;;;;6259913;22;20804;-94
2024/01/12 11:28:49;;;;;;;35.23;17.03;;;;;;;;;;6262786;22;20384;-92
2024/01/12 11:31:24;;;;;;;29.07;17.63;;;;;;;;;;6283562;22;20366;-92
2024/01/12 11:34:01;;;;;;;36.60;19.90;;;;;;;;;;6262192;22;20373;-94
2024/01/12 11:36:27;;;;;;;31.53;19.90;;;;;;;;;;6259407;22;20372;-94
2024/01/12 11:38:56;;;;;;;29.77;20.40;;;;;;;;;;6261995;22;20417;-93
2024/01/12 11:41:27;;;;;;;25.77;18.07;;;;;;;;;;6285869;22;20461;-94
2024/01/12 11:43:56;;;;;;;32.00;21.33;;;;;;;;;;6260541;22;20384;-93
2024/01/12 11:46:26;;;;;;;31.50;20.20;;;;;;;;;;6259542;22;20407;-94
2024/01/12 11:48:52;;;;;;;30.17;20.53;;;;;;;;;;6258653;22;20380;-93
2024/01/12 11:51:27;;;;;;;27.90;21.67;;;;;;;;;;6258941;22;20873;-92
2024/01/12 11:53:53;;;;;;;28.13;19.20;;;;;;;;;;6259161;22;20373;-92
2024/01/12 11:56:21;;;;;;;36.00;21.13;;;;;;;;;;6260527;22;20435;-92
2024/01/12 11:58:47;;;;;;;34.03;21.70;;;;;;;;;;6261054;22;20421;-92
2024/01/12 12:01:14;;;;;;;34.57;20.47;;;;;;;;;;6257643;22;20394;-92
2024/01/12 12:03:40;;;;;;;39.70;23.20;;;;;;;;;;6263351;22;20404;-92
2024/01/12 12:06:10;;;;;;;34.03;22.80;;;;;;;;;;6258920;22;20971;-91
2024/01/12 12:08:37;;;;;;;35.97;22.77;;;;;;;;;;6287708;22;20698;-93
2024/01/12 12:11:03;;;;;;;27.00;18.57;;;;;;;;;;6257926;22;20381;-92
2024/01/12 12:13:30;;;;;;;36.90;21.77;;;;;;;;;;6260954;22;20401;-91
2024/01/12 12:15:56;;;;;;;35.73;22.83;;;;;;;;;;6261311;22;20393;-92
2024/01/12 12:18:23;;;;;;;36.37;22.27;;;;;;;;;;6261185;22;20425;-93
2024/01/12 12:20:49;;;;;;;28.37;19.50;;;;;;;;;;6259325;22;20370;-94
2024/01/12 12:23:15;;;;;;;36.50;23.00;;;;;;;;;;6259648;22;21086;-92
2024/01/12 12:25:41;;;;;;;29.70;20.07;;;;;;;;;;6258027;22;20404;-91
2024/01/12 12:28:07;;;;;;;32.77;21.10;;;;;;;;;;6260456;22;20686;-95
2024/01/12 12:30:34;;;;;;;35.00;20.97;;;;;;;;;;6258398;22;20906;-92
2024/01/12 12:33:00;;;;;;;33.80;20.63;;;;;;;;;;6261218;22;20385;-92
2024/01/12 12:35:26;;;;;;;31.50;19.03;;;;;;;;;;6260673;22;20369;-92
2024/01/12 12:37:52;;;;;;;30.47;19.37;;;;;;;;;;6259356;22;20504;-93
2024/01/12 12:40:18;;;;;;;26.90;16.33;;;;;;;;;;6257732;22;20381;-92
2024/01/12 12:42:45;;;;;;;32.20;20.67;;;;;;;;;;6260832;22;20428;-93
2024/01/12 12:45:11;;;;;;;31.63;19.37;;;;;;;;;;6261095;22;20379;-92
2024/01/12 12:47:37;;;;;;;28.73;20.27;;;;;;;;;;6257266;22;20411;-92
2024/01/12 12:50:09;;;;;;;37.60;19.60;;;;;;;;;;6228264;23;20390;-93
2024/01/12 12:52:35;;;;;;;28.77;18.17;;;;;;;;;;6224900;23;20675;-93
2024/01/12 12:55:03;;;;;;;24.53;16.40;;;;;;;;;;6230700;23;20421;-93
2024/01/12 12:57:29;;;;;;;28.90;19.40;;;;;;;;;;6226331;23;20528;-93
2024/01/12 12:59:55;;;;;;;27.13;16.93;;;;;;;;;;6228400;23;20374;-92
2024/01/12 13:02:21;;;;;;;34.70;20.20;;;;;;;;;;6223620;23;20374;-90
2024/01/12 13:04:47;;;;;;;30.27;16.87;;;;;;;;;;6224230;23;20839;-91
2024/01/12 13:07:13;;;;;;;20.97;15.33;;;;;;;;;;6225465;23;20401;-91
2024/01/12 13:09:41;;;;;;;24.07;15.83;;;;;;;;;;6223878;23;20432;-91
2024/01/12 13:12:16;;;;;;;24.97;17.20;;;;;;;;;;6228494;23;20818;-89
2024/01/12 13:14:42;;;;;;;24.00;17.33;;;;;;;;;;6223936;23;20393;-90
2024/01/12 13:17:08;;;;;;;30.03;17.20;;;;;;;;;;6229283;23;20417;-90
2024/01/12 13:19:36;;;;;;;32.27;18.33;;;;;;;;;;6225180;23;20447;-92
2024/01/12 13:22:02;;;;;;;22.07;14.07;;;;;;;;;;6276459;22;20407;-92
2024/01/12 13:24:30;;;;;;;20.70;15.23;;;;;;;;;;6258033;22;20412;-90
2024/01/12 13:26:56;;;;;;;29.90;18.30;;;;;;;;;;6259778;22;20428;-92
2024/01/12 13:29:22;;;;;;;25.70;15.97;;;;;;;;;;6259215;22;20369;-92
2024/01/12 13:31:48;;;;;;;30.50;16.13;;;;;;;;;;6259802;22;20495;-91
2024/01/12 13:34:14;;;;;;;33.53;18.00;;;;;;;;;;6259049;22;20732;-91
2024/01/12 13:36:41;;;;;;;35.87;17.67;;;;;;;;;;6260464;22;20924;-91
2024/01/12 13:39:07;;;;;;;35.40;18.70;;;;;;;;;;6257654;22;20440;-91
2024/01/12 13:41:34;;;;;;;35.80;19.90;;;;;;;;;;6259310;22;20457;-91
2024/01/12 13:44:02;;;;;;;32.00;20.60;;;;;;;;;;6259336;22;20439;-92
2024/01/12 13:46:29;;;;;;;33.20;18.00;;;;;;;;;;6260943;22;20793;-92
2024/01/12 13:48:55;;;;;;;23.67;17.17;;;;;;;;;;6256174;22;20408;-90
2024/01/12 13:51:21;;;;;;;33.47;18.10;;;;;;;;;;6258831;22;20368;-92
2024/01/12 13:53:47;;;;;;;33.27;19.07;;;;;;;;;;6259168;22;20383;-91
2024/01/12 13:56:13;;;;;;;29.47;15.57;;;;;;;;;;6260208;22;20416;-91
2024/01/12 13:58:39;;;;;;;27.87;17.80;;;;;;;;;;6257284;22;20425;-93
2024/01/12 14:01:06;;;;;;;35.10;18.03;;;;;;;;;;6259625;22;20377;-92
2024/01/12 14:03:33;;;;;;;34.80;19.00;;;;;;;;;;6283901;22;20361;-90
2024/01/12 14:05:59;;;;;;;37.30;17.27;;;;;;;;;;6262493;22;20434;-90
2024/01/12 14:08:25;;;;;;;20.50;12.83;;;;;;;;;;6257219;22;20397;-91
2024/01/12 14:11:12;;;;;;;21.60;15.60;;;;;;;;;;6261076;22;20378;-91
2024/01/12 14:13:39;;;;;;;27.13;13.27;;;;;;;;;;6256135;22;20706;-94